createdAt,value
2019-05-29T00:01:54.224Z,92.60
2019-05-29T00:04:24.605Z,92.60
2019-05-29T00:06:56.109Z,92.70
2019-05-29T00:09:32.816Z,92.70
2019-05-29T00:12:02.807Z,92.80
2019-05-29T00:14:34.532Z,92.70
2019-05-29T00:17:06.310Z,92.60
2019-05-29T00:19:41.053Z,92.60
2019-05-29T00:22:12.714Z,92.60
2019-05-29T00:24:44.396Z,92.60
2019-05-29T00:27:16.161Z,92.60
2019-05-29T00:29:46.770Z,92.60
2019-05-29T00:32:20.008Z,92.60
2019-05-29T00:34:53.905Z,92.60
2019-05-29T00:37:24.978Z,92.10
2019-05-29T00:39:55.467Z,92.10
2019-05-29T00:42:28.685Z,92.20
2019-05-29T00:44:59.221Z,92.10
2019-05-29T00:47:30.485Z,92.10
2019-05-29T00:50:00.997Z,91.90
2019-05-29T00:52:32.940Z,91.90
2019-05-29T00:55:04.067Z,91.50
2019-05-29T00:57:37.189Z,91.60
2019-05-29T01:00:09.050Z,91.60
2019-05-29T01:02:39.535Z,91.80
2019-05-29T01:05:13.850Z,91.50
2019-05-29T01:07:48.093Z,91.40
2019-05-29T01:10:19.040Z,91.50
2019-05-29T01:12:50.554Z,91.60
2019-05-29T01:15:24.022Z,91.20
2019-05-29T01:17:55.686Z,90.90
2019-05-29T01:20:27.170Z,91.00
2019-05-29T01:22:57.776Z,91.20
2019-05-29T01:25:29.303Z,91.30
2019-05-29T01:28:00.803Z,91.00
2019-05-29T01:30:35.248Z,90.90
2019-05-29T01:33:09.816Z,90.70
2019-05-29T01:35:44.089Z,90.60
2019-05-29T01:38:19.190Z,90.70
2019-05-29T01:40:49.501Z,90.50
2019-05-29T01:43:23.469Z,90.40
2019-05-29T01:45:57.529Z,90.30
2019-05-29T01:48:29.470Z,90.00
2019-05-29T01:51:01.131Z,90.10
2019-05-29T01:53:32.750Z,90.20
2019-05-29T01:56:04.091Z,90.00
2019-05-29T01:58:35.797Z,89.90
2019-05-29T02:01:09.088Z,90.00
2019-05-29T02:03:39.408Z,89.80
2019-05-29T02:06:11.098Z,89.40
2019-05-29T02:08:44.498Z,89.30
2019-05-29T02:11:17.045Z,89.20
2019-05-29T02:13:47.654Z,89.00
2019-05-29T02:16:22.664Z,89.10
2019-05-29T02:18:54.264Z,86.80
2019-05-29T02:21:25.619Z,85.30
2019-05-29T02:23:56.093Z,85.70
2019-05-29T02:26:28.021Z,86.20
2019-05-29T02:28:59.311Z,85.90
2019-05-29T02:31:30.668Z,86.20
2019-05-29T02:34:01.958Z,86.00
2019-05-29T02:36:33.674Z,85.40
2019-05-29T02:39:07.090Z,85.60
2019-05-29T02:41:38.720Z,84.40
2019-05-29T02:44:09.327Z,84.40
2019-05-29T02:46:40.637Z,84.00
2019-05-29T02:49:13.689Z,83.50
2019-05-29T02:51:47.007Z,83.20
2019-05-29T02:54:20.190Z,83.20
2019-05-29T02:56:51.633Z,82.80
2019-05-29T02:59:23.435Z,82.70
2019-05-29T03:01:56.064Z,81.80
2019-05-29T03:04:28.216Z,81.60
2019-05-29T03:07:02.068Z,80.80
2019-05-29T03:09:33.130Z,80.10
2019-05-29T03:12:05.074Z,80.40
2019-05-29T03:14:36.139Z,78.40
2019-05-29T03:17:07.698Z,78.00
2019-05-29T03:19:38.950Z,77.50
2019-05-29T03:22:11.082Z,76.30
2019-05-29T03:24:42.457Z,76.10
2019-05-29T03:27:16.807Z,76.20
2019-05-29T03:29:47.905Z,75.10
2019-05-29T03:32:22.085Z,74.30
2019-05-29T03:34:53.865Z,74.60
2019-05-29T03:37:26.166Z,74.30
2019-05-29T03:39:59.656Z,74.30
2019-05-29T03:42:30.396Z,74.60
2019-05-29T03:45:01.716Z,75.10
2019-05-29T03:47:35.131Z,74.30
2019-05-29T03:50:07.040Z,72.50
2019-05-29T03:52:39.081Z,72.90
2019-05-29T03:55:12.199Z,73.80
2019-05-29T03:57:46.289Z,73.20
2019-05-29T04:00:16.811Z,71.70
2019-05-29T04:02:49.879Z,73.00
2019-05-29T04:05:21.554Z,72.00
2019-05-29T04:07:57.561Z,71.80
2019-05-29T04:10:35.453Z,71.70
2019-05-29T04:13:05.815Z,71.60
2019-05-29T04:15:36.995Z,71.60
2019-05-29T04:18:09.076Z,71.80
2019-05-29T04:20:42.151Z,70.40
2019-05-29T04:23:13.745Z,70.40
2019-05-29T04:25:45.016Z,68.70
2019-05-29T04:28:15.303Z,69.50
2019-05-29T04:30:50.689Z,69.40
2019-05-29T04:33:22.557Z,70.30
2019-05-29T04:35:52.834Z,69.20
2019-05-29T04:38:24.736Z,65.30
2019-05-29T04:41:02.643Z,66.60
2019-05-29T04:43:33.450Z,66.50
2019-05-29T04:46:05.816Z,65.40
2019-05-29T04:48:38.254Z,65.40
2019-05-29T04:51:09.002Z,64.30
2019-05-29T04:53:40.831Z,63.80
2019-05-29T04:56:12.693Z,61.70
2019-05-29T04:58:44.615Z,62.50
2019-05-29T05:01:16.198Z,63.60
2019-05-29T05:03:46.625Z,63.80
2019-05-29T05:06:18.140Z,63.50
2019-05-29T05:08:49.802Z,63.80
2019-05-29T05:11:20.276Z,65.10
2019-05-29T05:13:53.475Z,66.30
2019-05-29T05:16:24.734Z,64.00
2019-05-29T05:18:55.019Z,63.30
2019-05-29T05:21:29.844Z,64.90
2019-05-29T05:24:01.515Z,63.20
2019-05-29T05:26:34.103Z,63.60
2019-05-29T05:29:04.973Z,62.70
2019-05-29T05:31:36.411Z,62.10
2019-05-29T05:34:10.630Z,62.10
2019-05-29T05:36:43.427Z,60.70
2019-05-29T05:39:16.300Z,61.60
2019-05-29T05:41:50.027Z,62.80
2019-05-29T05:44:21.926Z,61.90
2019-05-29T05:46:54.377Z,60.30
2019-05-29T05:49:27.027Z,61.60
2019-05-29T05:51:58.793Z,61.60
2019-05-29T05:54:31.272Z,61.20
2019-05-29T05:57:01.946Z,61.20
2019-05-29T05:59:33.612Z,61.60
2019-05-29T06:02:05.278Z,59.90
2019-05-29T06:04:35.856Z,59.80
2019-05-29T06:07:10.247Z,58.70
2019-05-29T06:09:40.634Z,58.60
2019-05-29T06:12:11.553Z,57.60
2019-05-29T06:14:42.984Z,56.50
2019-05-29T06:17:14.486Z,56.90
2019-05-29T06:19:46.078Z,56.20
2019-05-29T06:22:20.604Z,56.20
2019-05-29T06:24:52.168Z,55.80
2019-05-29T06:27:23.922Z,57.10
2019-05-29T06:29:54.227Z,57.50
2019-05-29T06:32:25.850Z,56.00
2019-05-29T06:34:56.045Z,57.60
2019-05-29T06:37:27.750Z,58.00
2019-05-29T06:39:59.211Z,56.60
2019-05-29T06:42:29.647Z,56.00
2019-05-29T06:45:01.168Z,56.70
2019-05-29T06:47:31.495Z,57.20
2019-05-29T06:50:05.453Z,56.80
2019-05-29T06:52:37.380Z,56.10
2019-05-29T06:55:09.174Z,56.80
2019-05-29T06:57:44.363Z,57.70
2019-05-29T07:00:34.075Z,58.50
2019-05-29T07:02:47.051Z,58.40
2019-05-29T07:05:18.639Z,59.10
2019-05-29T07:07:48.980Z,59.70
2019-05-29T07:10:20.670Z,60.20
2019-05-29T07:12:51.818Z,59.30
2019-05-29T07:15:22.193Z,59.20
2019-05-29T07:17:52.703Z,61.20
2019-05-29T07:20:24.625Z,62.10
2019-05-29T07:22:56.774Z,64.00
2019-05-29T07:25:27.332Z,64.60
2019-05-29T07:28:01.897Z,65.80
2019-05-29T07:30:33.291Z,65.20
2019-05-29T07:33:03.648Z,66.70
2019-05-29T07:35:35.054Z,69.40
2019-05-29T07:38:06.541Z,66.80
2019-05-29T07:40:38.404Z,66.60
2019-05-29T07:43:09.290Z,66.50
2019-05-29T07:45:40.673Z,64.90
2019-05-29T07:48:12.386Z,66.40
2019-05-29T07:50:43.966Z,66.00
2019-05-29T07:53:14.812Z,64.60
2019-05-29T07:55:46.763Z,63.70
2019-05-29T07:58:18.247Z,63.60
2019-05-29T08:01:08.961Z,62.60
2019-05-29T08:03:21.411Z,62.30
2019-05-29T08:05:53.389Z,61.50
2019-05-29T08:08:25.002Z,61.00
2019-05-29T08:10:55.200Z,61.60
2019-05-29T08:13:26.639Z,61.40
2019-05-29T08:16:02.921Z,61.40
2019-05-29T08:18:30.855Z,60.60
2019-05-29T08:21:01.181Z,60.20
2019-05-29T08:23:32.661Z,60.30
2019-05-29T08:26:04.354Z,60.80
2019-05-29T08:28:35.886Z,60.30
2019-05-29T08:31:07.540Z,59.80
2019-05-29T08:33:40.803Z,59.40
2019-05-29T08:36:14.923Z,59.20
2019-05-29T08:38:47.404Z,59.60
2019-05-29T08:41:18.956Z,56.00
2019-05-29T08:43:50.806Z,56.80
2019-05-29T08:46:25.154Z,56.00
2019-05-29T08:48:55.465Z,55.50
2019-05-29T08:51:27.084Z,57.40
2019-05-29T08:54:01.350Z,58.10
2019-05-29T08:56:33.091Z,58.60
2019-05-29T08:59:06.505Z,58.60
2019-05-29T09:01:36.734Z,59.40
2019-05-29T09:04:08.709Z,59.80
2019-05-29T09:06:39.097Z,60.40
2019-05-29T09:09:10.410Z,60.20
2019-05-29T09:11:43.009Z,60.40
2019-05-29T09:14:14.936Z,61.50
2019-05-29T09:16:45.484Z,61.60
2019-05-29T09:19:18.869Z,62.00
2019-05-29T09:21:50.930Z,61.50
2019-05-29T09:24:23.063Z,62.20
2019-05-29T09:26:54.682Z,62.60
2019-05-29T09:29:25.582Z,62.20
2019-05-29T09:31:58.490Z,62.40
2019-05-29T09:34:29.605Z,62.30
2019-05-29T09:37:03.039Z,60.90
2019-05-29T09:39:36.503Z,61.20
2019-05-29T09:42:08.096Z,61.20
2019-05-29T09:44:42.324Z,61.20
2019-05-29T09:47:13.780Z,61.70
2019-05-29T09:49:45.621Z,61.70
2019-05-29T09:52:18.280Z,61.90
2019-05-29T09:54:54.685Z,62.40
2019-05-29T09:57:26.226Z,62.80
2019-05-29T10:00:01.537Z,62.80
2019-05-29T10:02:32.584Z,63.40
2019-05-29T10:05:04.133Z,63.50
2019-05-29T10:07:37.812Z,63.80
2019-05-29T10:10:26.964Z,64.10
2019-05-29T10:12:58.112Z,63.10
2019-05-29T10:15:32.407Z,63.80
2019-05-29T10:18:08.268Z,63.90
2019-05-29T10:20:36.974Z,63.30
2019-05-29T10:23:09.093Z,63.00
2019-05-29T10:25:40.718Z,63.30
2019-05-29T10:28:11.219Z,63.00
2019-05-29T10:30:44.466Z,63.50
2019-05-29T10:33:16.036Z,64.00
2019-05-29T10:35:49.663Z,62.80
2019-05-29T10:38:20.165Z,63.00
2019-05-29T10:41:00.436Z,62.80
2019-05-29T10:43:34.275Z,63.40
2019-05-29T10:45:58.225Z,63.60
2019-05-29T10:48:28.450Z,64.40
2019-05-29T10:51:01.842Z,64.80
2019-05-29T10:53:33.415Z,64.40
2019-05-29T10:56:04.828Z,65.20
2019-05-29T10:58:47.947Z,65.30
2019-05-29T11:01:08.042Z,65.50
2019-05-29T11:03:39.419Z,65.60
2019-05-29T11:06:11.340Z,65.90
2019-05-29T11:08:45.796Z,65.70
2019-05-29T11:11:21.686Z,66.20
2019-05-29T11:13:53.422Z,64.90
2019-05-29T11:16:26.625Z,64.30
2019-05-29T11:18:58.441Z,64.80
2019-05-29T11:21:29.779Z,65.50
2019-05-29T11:24:00.194Z,66.00
2019-05-29T11:26:30.382Z,67.70
2019-05-29T11:29:03.483Z,67.70
2019-05-29T11:31:34.866Z,68.60
2019-05-29T11:34:08.288Z,69.10
2019-05-29T11:36:40.009Z,69.40
2019-05-29T11:39:11.490Z,69.80
2019-05-29T11:41:45.550Z,70.40
2019-05-29T11:44:16.957Z,71.20
2019-05-29T11:46:50.019Z,71.20
2019-05-29T11:49:20.182Z,71.10
2019-05-29T11:51:53.618Z,70.40
2019-05-29T11:54:24.370Z,70.40
2019-05-29T11:56:59.186Z,70.90
2019-05-29T11:59:31.287Z,71.20
2019-05-29T12:02:03.358Z,70.90
2019-05-29T12:04:36.897Z,70.50
2019-05-29T12:07:10.826Z,70.70
2019-05-29T12:09:45.342Z,71.00
2019-05-29T12:12:15.847Z,71.80
2019-05-29T12:15:00.494Z,71.40
2019-05-29T12:17:20.419Z,74.80
2019-05-29T12:19:54.008Z,76.10
2019-05-29T12:22:26.878Z,76.00
2019-05-29T12:25:00.770Z,77.30
2019-05-29T12:27:31.221Z,78.20
2019-05-29T12:30:03.169Z,78.30
2019-05-29T12:32:33.956Z,82.10
2019-05-29T12:35:05.612Z,81.20
2019-05-29T12:37:37.393Z,81.00
2019-05-29T12:40:13.617Z,81.90
2019-05-29T12:42:45.096Z,81.70
2019-05-29T12:45:17.008Z,81.00
2019-05-29T12:47:48.455Z,80.80
2019-05-29T12:50:21.937Z,80.90
2019-05-29T12:52:53.490Z,81.00
2019-05-29T12:55:25.384Z,81.10
2019-05-29T12:57:57.932Z,80.70
2019-05-29T13:00:31.865Z,80.20
2019-05-29T13:03:05.186Z,80.30
2019-05-29T13:05:36.759Z,80.70
2019-05-29T13:08:07.656Z,80.40
2019-05-29T13:10:39.038Z,80.10
2019-05-29T13:13:11.380Z,80.30
2019-05-29T13:15:43.031Z,80.60
2019-05-29T13:18:14.313Z,81.20
2019-05-29T13:20:45.494Z,80.60
2019-05-29T13:23:17.465Z,80.60
2019-05-29T13:25:51.748Z,81.40
2019-05-29T13:28:23.489Z,80.60
2019-05-29T13:30:57.712Z,80.50
2019-05-29T13:33:31.216Z,81.00
2019-05-29T13:36:02.521Z,80.70
2019-05-29T13:38:36.232Z,80.70
2019-05-29T13:41:09.555Z,80.50
2019-05-29T13:43:41.094Z,80.30
2019-05-29T13:46:15.256Z,80.70
2019-05-29T13:48:47.011Z,80.60
2019-05-29T13:51:18.781Z,80.60
2019-05-29T13:54:02.615Z,81.00
2019-05-29T13:56:24.430Z,81.40
2019-05-29T13:58:56.161Z,81.60
2019-05-29T14:01:27.899Z,81.50
2019-05-29T14:04:00.150Z,81.50
2019-05-29T14:06:31.728Z,81.50
2019-05-29T14:09:07.401Z,81.50
2019-05-29T14:11:38.684Z,81.60
2019-05-29T14:14:10.928Z,81.80
2019-05-29T14:16:41.760Z,82.00
2019-05-29T14:19:13.417Z,82.90
2019-05-29T14:21:44.937Z,82.50
2019-05-29T14:24:28.255Z,83.60
2019-05-29T14:26:51.184Z,84.50
2019-05-29T14:29:25.357Z,85.00
2019-05-29T14:31:58.521Z,85.90
2019-05-29T14:34:33.042Z,86.10
2019-05-29T14:37:06.313Z,86.60
2019-05-29T14:39:37.662Z,87.00
2019-05-29T14:42:10.093Z,86.90
2019-05-29T14:44:43.544Z,87.80
2019-05-29T14:47:17.262Z,87.30
2019-05-29T14:49:48.959Z,88.30
2019-05-29T14:52:22.052Z,88.60
2019-05-29T14:54:53.345Z,89.40
2019-05-29T14:57:26.255Z,89.70
2019-05-29T14:59:55.636Z,90.10
2019-05-29T15:02:26.887Z,89.80
2019-05-29T15:05:00.468Z,89.70
2019-05-29T15:07:31.943Z,89.10
2019-05-29T15:10:12.620Z,89.00
2019-05-29T15:12:38.226Z,89.40
2019-05-29T15:15:11.391Z,88.40
2019-05-29T15:17:42.794Z,88.30
2019-05-29T15:20:14.443Z,87.80
2019-05-29T15:22:45.750Z,87.40
2019-05-29T15:25:23.486Z,87.00
2019-05-29T15:27:51.705Z,86.50
2019-05-29T15:30:23.795Z,86.20
2019-05-29T15:32:55.392Z,87.60
2019-05-29T15:35:26.773Z,87.20
2019-05-29T15:37:59.847Z,86.60
2019-05-29T15:40:31.561Z,86.40
2019-05-29T15:43:01.933Z,86.20
2019-05-29T15:45:36.887Z,86.60
2019-05-29T15:48:08.964Z,86.80
2019-05-29T15:50:40.299Z,86.80
2019-05-29T15:53:13.143Z,86.80
2019-05-29T15:55:45.246Z,86.50
2019-05-29T15:58:17.946Z,86.20
2019-05-29T16:00:49.868Z,86.00
2019-05-29T16:03:23.364Z,86.00
2019-05-29T16:05:55.158Z,85.80
2019-05-29T16:08:26.786Z,85.80
2019-05-29T16:10:58.345Z,85.60
2019-05-29T16:13:29.680Z,85.60
2019-05-29T16:16:00.129Z,85.80
2019-05-29T16:18:33.531Z,86.00
2019-05-29T16:21:05.287Z,86.00
2019-05-29T16:23:37.028Z,86.00
2019-05-29T16:26:09.022Z,85.90
2019-05-29T16:28:40.577Z,85.80
2019-05-29T16:31:10.827Z,85.60
2019-05-29T16:33:43.396Z,85.70
2019-05-29T16:36:16.412Z,85.60
2019-05-29T16:38:46.418Z,85.50
2019-05-29T16:41:17.949Z,85.50
2019-05-29T16:43:48.754Z,85.30
2019-05-29T16:46:22.375Z,85.40
2019-05-29T16:48:52.362Z,85.20
2019-05-29T16:51:23.083Z,85.50
2019-05-29T16:53:56.566Z,85.40
2019-05-29T16:56:27.684Z,87.20
2019-05-29T16:58:59.205Z,86.90
2019-05-29T17:01:29.758Z,87.40
2019-05-29T17:04:01.143Z,87.90
2019-05-29T17:06:31.350Z,87.40
2019-05-29T17:09:01.776Z,88.80
2019-05-29T17:11:33.150Z,89.50
2019-05-29T17:14:04.715Z,89.40
2019-05-29T17:16:35.745Z,89.90
2019-05-29T17:19:06.322Z,90.10
2019-05-29T17:21:36.777Z,89.80
2019-05-29T17:24:08.352Z,89.40
2019-05-29T17:26:40.390Z,89.10
2019-05-29T17:29:10.540Z,88.80
2019-05-29T17:31:41.952Z,88.60
2019-05-29T17:34:15.284Z,88.30
2019-05-29T17:36:46.607Z,88.10
2019-05-29T17:39:17.376Z,87.90
2019-05-29T17:41:51.142Z,88.00
2019-05-29T17:44:21.430Z,88.60
2019-05-29T17:46:51.898Z,89.20
2019-05-29T17:49:32.994Z,88.10
2019-05-29T17:51:57.839Z,88.90
2019-05-29T17:54:30.914Z,88.50
2019-05-29T17:57:02.150Z,89.20
2019-05-29T17:59:33.737Z,88.80
2019-05-29T18:02:04.292Z,88.80
2019-05-29T18:04:35.459Z,88.70
2019-05-29T18:07:06.874Z,88.70
2019-05-29T18:09:37.449Z,88.70
2019-05-29T18:12:08.396Z,89.00
2019-05-29T18:14:40.342Z,90.10
2019-05-29T18:17:12.896Z,90.20
2019-05-29T18:19:46.687Z,90.20
2019-05-29T18:22:17.530Z,90.30
2019-05-29T18:24:49.003Z,90.50
2019-05-29T18:27:20.277Z,90.50
2019-05-29T18:29:51.480Z,90.40
2019-05-29T18:32:22.414Z,90.40
2019-05-29T18:34:56.502Z,90.30
2019-05-29T18:37:28.355Z,90.40
2019-05-29T18:39:59.994Z,90.50
2019-05-29T18:42:32.779Z,90.50
2019-05-29T18:45:03.387Z,90.60
2019-05-29T18:47:34.844Z,90.50
2019-05-29T18:50:09.076Z,90.60
2019-05-29T18:52:43.034Z,90.40
2019-05-29T18:55:14.893Z,90.60
2019-05-29T18:57:45.420Z,90.50
2019-05-29T19:00:16.946Z,90.60
2019-05-29T19:02:47.405Z,90.40
2019-05-29T19:05:18.752Z,90.40
2019-05-29T19:07:50.060Z,90.40
2019-05-29T19:10:21.975Z,90.60
2019-05-29T19:12:53.993Z,90.40
2019-05-29T19:15:25.937Z,90.30
2019-05-29T19:17:56.303Z,90.40
2019-05-29T19:20:26.841Z,90.20
2019-05-29T19:22:58.114Z,90.10
2019-05-29T19:25:29.029Z,90.10
2019-05-29T19:28:00.538Z,90.20
2019-05-29T19:30:31.106Z,90.10
2019-05-29T19:33:02.706Z,89.90
2019-05-29T19:35:35.830Z,90.00
2019-05-29T19:38:06.246Z,89.80
2019-05-29T19:40:37.451Z,89.60
2019-05-29T19:43:10.244Z,89.40
2019-05-29T19:45:40.793Z,89.20
2019-05-29T19:48:11.968Z,89.10
2019-05-29T19:50:43.532Z,89.00
2019-05-29T19:53:14.905Z,89.10
2019-05-29T19:55:46.849Z,89.00
2019-05-29T19:58:18.264Z,89.40
2019-05-29T20:00:50.068Z,90.00
2019-05-29T20:03:20.786Z,89.60
2019-05-29T20:05:51.193Z,89.30
2019-05-29T20:08:25.336Z,89.00
2019-05-29T20:10:55.767Z,90.00
2019-05-29T20:13:30.145Z,90.00
2019-05-29T20:16:00.829Z,90.10
2019-05-29T20:18:32.010Z,90.00
2019-05-29T20:21:02.279Z,90.00
2019-05-29T20:23:34.550Z,89.60
2019-05-29T20:26:05.092Z,89.70
2019-05-29T20:28:36.416Z,90.10
2019-05-29T20:31:11.563Z,90.30
2019-05-29T20:33:39.893Z,90.40
2019-05-29T20:36:11.045Z,90.60
2019-05-29T20:38:41.489Z,90.50
2019-05-29T20:41:12.803Z,90.50
2019-05-29T20:43:43.153Z,90.50
2019-05-29T20:46:14.570Z,90.60
2019-05-29T20:48:46.183Z,90.50
2019-05-29T20:51:16.922Z,90.30
2019-05-29T20:53:48.803Z,90.40
2019-05-29T20:56:18.886Z,90.30
2019-05-29T20:58:50.909Z,90.40
2019-05-29T21:01:21.433Z,90.30
2019-05-29T21:03:51.822Z,90.30
2019-05-29T21:06:23.169Z,90.60
2019-05-29T21:08:54.827Z,90.40
2019-05-29T21:11:26.274Z,90.50
2019-05-29T21:13:56.406Z,90.70
2019-05-29T21:16:26.890Z,91.20
2019-05-29T21:18:58.348Z,91.30
2019-05-29T21:21:29.770Z,91.10
2019-05-29T21:24:02.519Z,91.20
2019-05-29T21:26:32.722Z,91.00
2019-05-29T21:29:04.001Z,91.20
2019-05-29T21:31:35.502Z,91.20
2019-05-29T21:34:06.011Z,91.20
2019-05-29T21:36:37.992Z,91.20
2019-05-29T21:39:10.161Z,91.20
2019-05-29T21:41:40.701Z,91.40
2019-05-29T21:44:12.042Z,91.80
2019-05-29T21:46:45.051Z,92.10
2019-05-29T21:49:16.614Z,92.10
2019-05-29T21:51:49.707Z,91.90
2019-05-29T21:54:20.250Z,92.00
2019-05-29T21:56:50.711Z,92.00
2019-05-29T21:59:22.758Z,92.10
2019-05-29T22:01:54.172Z,92.20
2019-05-29T22:04:24.702Z,92.30
2019-05-29T22:06:55.946Z,92.50
2019-05-29T22:09:27.572Z,92.60
2019-05-29T22:11:58.561Z,92.70
2019-05-29T22:14:29.978Z,93.00
2019-05-29T22:17:04.217Z,92.90
2019-05-29T22:19:37.354Z,92.90
2019-05-29T22:22:07.754Z,92.90
2019-05-29T22:24:41.045Z,92.80
2019-05-29T22:27:11.380Z,92.70
2019-05-29T22:29:41.954Z,92.80
2019-05-29T22:32:13.352Z,93.10
2019-05-29T22:34:46.388Z,92.60
2019-05-29T22:37:18.354Z,92.60
2019-05-29T22:39:51.369Z,92.70
2019-05-29T22:42:22.949Z,92.60
2019-05-29T22:44:53.618Z,93.20
2019-05-29T22:47:24.403Z,92.90
2019-05-29T22:49:58.015Z,93.00
2019-05-29T22:52:28.315Z,93.40
2019-05-29T22:54:59.927Z,93.20
2019-05-29T22:57:32.041Z,93.20
2019-05-29T23:00:03.971Z,93.20
2019-05-29T23:02:34.432Z,93.10
2019-05-29T23:05:05.524Z,93.30
2019-05-29T23:07:40.927Z,93.30
2019-05-29T23:10:11.431Z,93.30
2019-05-29T23:12:43.341Z,93.40
2019-05-29T23:15:14.881Z,93.50
2019-05-29T23:17:46.434Z,93.40
2019-05-29T23:20:18.398Z,93.50
2019-05-29T23:22:48.870Z,93.50
2019-05-29T23:25:19.249Z,93.80
2019-05-29T23:27:50.670Z,93.60
2019-05-29T23:30:21.992Z,93.80
2019-05-29T23:32:56.827Z,93.60
2019-05-29T23:35:27.646Z,93.70
2019-05-29T23:37:59.157Z,93.80
2019-05-29T23:40:32.707Z,93.80
2019-05-29T23:43:04.261Z,93.60
2019-05-29T23:45:36.092Z,93.70
2019-05-29T23:48:08.001Z,93.80
2019-05-29T23:50:42.323Z,93.80
2019-05-29T23:53:15.867Z,93.80
2019-05-29T23:55:47.700Z,93.70
2019-05-29T23:58:18.008Z,93.70
